Warning: Javascript must be enabled to use all the features on this page!


Page Loading - Please Wait...

Click to hideNews Bulletins

Peak Streamflow for the Nation

USGS 07340300 Cossatot River near Vandervoort, AR

Polk County, Arkansas
Hydrologic Unit Code 11140109
Latitude  34°22'48", Longitude  94°14'11" NAD83
Drainage area 89.6  square miles
Gage datum 786.00 feet above NAVD88
Output formats
Table
Graph
Tab-separated file
peakfq (watstore) format
Reselect output format
Water
Year
Date Gage
Height
(feet)
Stream-
flow
(cfs)
1961 1961-05-06 23.00 48,0007
1968 1968-05-13 18.13 26,900
1969 1969-01-30 15.58 18,600
1970 1970-03-03 14.60 15,900
1971 1970-10-27 16.08 20,100
1972 1971-12-09 19.35 31,500
1973 1972-10-31 17.18 23,500
1974 1974-04-21 18.08 26,700
1975 1974-11-23 18.05 26,600
1976 1975-12-06 9.22 4,700
1977 1977-03-27 16.54 21,400
1978 1978-04-10 8.39 3,630
1979 1979-02-22 18.03 26,400
1980 1980-05-15 8.62 3,910
1981 1980-12-08 10.35 6,410
1982 1982-02-16 9.88 5,660
1983 1982-12-02 19.50 32,000
1984 1984-03-27 9.77 5,500
1985 1984-10-25 16.47 21,200
1986 1985-11-27 14.15 14,500
1987 1987-03-17 17.04 23,000
1988 1987-12-25 12.54 10,700
1989 1988-11-19 11.18 7,870
1990 1990-01-19 13.00 11,700
1991 1991-04-13 14.14 14,500
1992 1992-03-18 14.78 16,300
1993 1993-01-04 14.55 15,600
1994 1994-07-14 18.70 29,000
1995 1995-07-05 15.55 18,300
1996 1996-05-11 10.80 7,260
1997 1996-11-07 15.13 17,100
1998 1997-12-24 11.24 8,050
1999 1998-10-06 15.23 17,400
2000 2000-06-18 12.18 9,890
2001 2001-09-09 15.19 17,300
2002 2001-12-16 13.21 12,200
2003 2002-12-30 9.89 5,770
2004 2003-11-18 9.84 5,630
2005 2004-10-27 19.68 32,800
2006 2006-03-20 13.71 13,400
2007 2007-01-14 12.73 11,100
2008 2008-04-04 13.46 16,0002
2009 2009-05-06 19.73 52,100
2010 2010-02-08 10.43 8,910
2011 2011-04-25 13.68 19,100
2012 2011-11-22 12.17 13,800
2013 2013-05-30 16.60 32,500
2014 2013-11-06 11.92 13,000
2015 2015-05-11 16.63 32,700
2016 2016-04-30 17.33 33,100
2017 2017-03-25 9.59 6,800
2018 2018-03-01 11.55 11,300
2019 2019-04-18 14.90 22,300
2020 2020-08-30 20.69 51,300
?
  Peak Streamflow Qualification Codes.